Carrying Place Town Township, Maine
Current Conditions -  °F | °C
As of 9:35 PM on Tuesday 21 Oct 2014 (Local Time) from KWVL Reporting Station
Overcast Overcast  
Wind Chill: 38°   Ceiling: 500
Heat Index: 45°   Visibility: 5mi
Dew Point: 39°   Wind: 15mph
Humidity: 81%   Direction: 30°NNE
Pressure: 30.09"   Gusts: NA
Location:  45.0341°N, 70.0886°W
Report Text: KWVL 220135Z 03013KT 5SM OVC005 07/04 A3009 RMK AO1
Loading
Personal Weather Stations






























Interactive Weather Map
Tropical Storm Tracking
New forecast layout! Learn more

10-Day Weather Forecast

Advertisements
Track Severe Weather on mobile